Time;durP1;ratioP1;P1;durP2;ratioP2;P2;SDS_P1;SDS_P2;PMS_P1;PMS_P2;Temp;Humidity;BMP_temperature;BMP_pressure;BME280_temperature;BME280_humidity;BME280_pressure;Samples;Min_cycle;Max_cycle;Signal;HPM_P1;HPM_P2
2021/12/09 00:02:06;;;;;;;6.10;2.43;;;3.60;99.90;;;;;;4952993;29;20507;-68
2021/12/09 00:04:31;;;;;;;4.70;3.27;;;3.70;99.90;;;;;;4953245;29;20177;-67
2021/12/09 00:07:00;;;;;;;5.77;2.87;;;3.70;99.90;;;;;;4952783;28;21017;-68
2021/12/09 00:09:26;;;;;;;7.40;3.33;;;3.60;99.90;;;;;;4955974;29;20207;-68
2021/12/09 00:11:52;;;;;;;7.63;2.33;;;3.50;99.90;;;;;;4955498;29;20455;-68
2021/12/09 00:14:26;;;;;;;2.67;2.40;;;3.40;99.90;;;;;;4957047;29;20940;-68
2021/12/09 00:16:55;;;;;;;4.43;2.70;;;3.40;99.90;;;;;;4956908;29;20214;-67
2021/12/09 00:19:21;;;;;;;3.17;2.87;;;3.40;99.90;;;;;;4957035;29;20464;-68
2021/12/09 00:21:46;;;;;;;7.03;2.40;;;3.50;99.90;;;;;;4956683;29;20488;-67
2021/12/09 00:24:12;;;;;;;5.17;3.07;;;3.50;99.90;;;;;;4956570;29;20448;-68
2021/12/09 00:26:38;;;;;;;5.00;2.83;;;3.50;99.90;;;;;;4956453;29;20248;-68
2021/12/09 00:29:05;;;;;;;2.93;2.53;;;3.50;99.90;;;;;;4956669;29;20208;-68
2021/12/09 00:31:31;;;;;;;4.33;2.87;;;3.40;99.90;;;;;;4956407;29;20488;-68
2021/12/09 00:33:58;;;;;;;3.90;2.70;;;3.50;99.90;;;;;;4957033;29;20463;-68
2021/12/09 00:36:27;;;;;;;3.57;3.03;;;3.40;99.90;;;;;;4955994;29;20749;-68
2021/12/09 00:38:57;;;;;;;4.73;3.17;;;3.40;99.90;;;;;;4956747;29;20443;-70
2021/12/09 00:41:22;;;;;;;4.63;3.80;;;3.50;99.90;;;;;;4956218;29;20467;-68
2021/12/09 00:43:48;;;;;;;4.97;2.50;;;3.60;99.90;;;;;;4956763;29;20444;-68
2021/12/09 00:46:14;;;;;;;4.57;3.70;;;3.60;99.90;;;;;;4956326;29;20185;-68
2021/12/09 00:48:40;;;;;;;5.43;3.43;;;3.60;99.90;;;;;;4956713;29;20439;-68
2021/12/09 00:51:07;;;;;;;11.30;4.70;;;3.50;99.90;;;;;;4956635;29;20201;-68
2021/12/09 00:53:34;;;;;;;6.70;4.27;;;3.50;99.90;;;;;;4956503;29;20432;-68
2021/12/09 00:56:01;;;;;;;5.50;4.00;;;3.60;99.90;;;;;;4956424;29;20432;-68
2021/12/09 00:58:27;;;;;;;5.37;4.50;;;3.60;99.90;;;;;;4956380;29;20436;-69
2021/12/09 01:00:52;;;;;;;4.70;4.00;;;3.50;99.90;;;;;;4956126;29;20476;-70
2021/12/09 01:03:18;;;;;;;7.80;4.70;;;3.50;99.90;;;;;;4956410;29;20517;-68
2021/12/09 01:05:45;;;;;;;5.37;4.60;;;3.60;99.90;;;;;;4956276;29;20180;-68
2021/12/09 01:08:11;;;;;;;4.90;4.50;;;3.60;99.90;;;;;;4956225;29;20903;-68
2021/12/09 01:10:37;;;;;;;5.20;4.60;;;3.50;99.90;;;;;;4956379;29;20448;-68
2021/12/09 01:13:04;;;;;;;9.33;5.63;;;3.50;99.90;;;;;;4956178;29;20436;-68
2021/12/09 01:15:30;;;;;;;6.13;5.50;;;3.50;99.90;;;;;;4955903;29;20516;-69
2021/12/09 01:17:56;;;;;;;5.80;5.30;;;3.50;99.90;;;;;;4956455;29;20524;-68
2021/12/09 01:20:25;;;;;;;5.43;4.93;;;3.50;99.90;;;;;;4955718;28;20205;-69
2021/12/09 01:22:55;;;;;;;6.00;5.40;;;3.50;99.90;;;;;;4954538;29;20436;-68
2021/12/09 01:25:23;;;;;;;10.43;5.90;;;3.50;99.90;;;;;;4955413;29;20432;-69
2021/12/09 01:27:52;;;;;;;7.03;6.33;;;3.60;99.90;;;;;;4942849;29;20563;-68
2021/12/09 01:30:19;;;;;;;6.53;5.90;;;3.60;99.90;;;;;;4948549;29;20809;-69
2021/12/09 01:32:50;;;;;;;7.23;5.70;;;3.70;99.90;;;;;;4952629;29;20433;-68
2021/12/09 01:35:27;;;;;;;6.10;5.10;;;3.70;99.90;;;;;;4955089;29;20460;-68
2021/12/09 01:37:56;;;;;;;7.43;6.70;;;3.70;99.90;;;;;;4955613;29;20432;-68
2021/12/09 01:40:24;;;;;;;12.47;8.27;;;3.70;99.90;;;;;;4955259;29;20456;-69
2021/12/09 01:42:50;;;;;;;9.90;7.77;;;3.70;99.90;;;;;;4955043;29;20456;-68
2021/12/09 01:45:16;;;;;;;9.10;6.87;;;3.60;99.90;;;;;;4955087;29;20471;-68
2021/12/09 01:47:41;;;;;;;13.40;7.37;;;3.60;99.90;;;;;;4950882;29;20201;-68
2021/12/09 01:50:08;;;;;;;9.97;6.50;;;3.60;99.90;;;;;;4955205;29;20444;-68
2021/12/09 01:52:34;;;;;;;9.93;7.33;;;3.60;99.90;;;;;;4955209;29;20434;-68
2021/12/09 01:54:59;;;;;;;9.67;7.30;;;3.70;99.90;;;;;;4955064;29;21032;-68
2021/12/09 01:57:25;;;;;;;8.80;7.40;;;3.70;99.90;;;;;;4954933;29;20192;-68
2021/12/09 01:59:50;;;;;;;9.53;7.30;;;3.60;99.90;;;;;;4954844;29;20181;-68
2021/12/09 02:02:16;;;;;;;9.00;7.47;;;3.60;99.90;;;;;;4947694;29;20181;-68
2021/12/09 02:04:42;;;;;;;11.30;7.50;;;3.70;99.90;;;;;;4946934;29;20181;-68
2021/12/09 02:07:08;;;;;;;11.00;8.00;;;3.70;99.90;;;;;;4954643;29;20224;-70
2021/12/09 02:09:35;;;;;;;11.30;7.70;;;3.70;99.90;;;;;;4954899;29;20428;-68
2021/12/09 02:12:01;;;;;;;10.07;7.50;;;3.70;99.90;;;;;;4954644;29;20452;-69
2021/12/09 02:14:27;;;;;;;7.60;6.73;;;3.60;99.90;;;;;;4954198;29;20507;-69
2021/12/09 02:16:53;;;;;;;8.00;6.50;;;3.60;99.90;;;;;;4953837;29;20491;-68
2021/12/09 02:19:18;;;;;;;10.43;7.37;;;3.70;99.90;;;;;;4954791;29;20195;-68
2021/12/09 02:21:44;;;;;;;13.00;8.13;;;3.60;99.90;;;;;;4954829;29;20210;-69
2021/12/09 02:24:14;;;;;;;9.17;7.80;;;3.60;99.90;;;;;;4954846;29;20189;-70
2021/12/09 02:26:42;;;;;;;9.70;7.43;;;3.60;99.90;;;;;;4954720;29;20598;-70
2021/12/09 02:29:12;;;;;;;13.30;7.70;;;3.70;99.90;;;;;;4937234;29;20957;-68
2021/12/09 02:31:39;;;;;;;8.90;6.50;;;3.60;99.90;;;;;;4953293;28;20461;-68
2021/12/09 02:34:06;;;;;;;11.70;6.63;;;3.60;99.90;;;;;;4954460;29;20438;-68
2021/12/09 02:36:37;;;;;;;12.90;6.73;;;3.60;99.90;;;;;;4954417;29;21012;-68
2021/12/09 02:39:05;;;;;;;9.87;6.97;;;3.60;99.90;;;;;;4954464;29;20436;-69
2021/12/09 02:41:33;;;;;;;9.47;7.20;;;3.60;99.90;;;;;;4954569;29;20452;-68
2021/12/09 02:44:03;;;;;;;16.90;8.60;;;3.70;99.90;;;;;;4954368;29;20435;-69
2021/12/09 02:46:35;;;;;;;9.63;7.20;;;3.70;99.90;;;;;;4953734;29;20496;-69
2021/12/09 02:49:00;;;;;;;8.83;6.57;;;3.80;99.90;;;;;;4954400;29;20435;-68
2021/12/09 02:51:26;;;;;;;6.73;5.93;;;3.80;99.90;;;;;;4953981;29;20452;-69
2021/12/09 02:53:51;;;;;;;8.63;6.70;;;3.80;99.90;;;;;;4954209;29;20172;-69
2021/12/09 02:56:20;;;;;;;7.50;6.43;;;3.90;99.90;;;;;;4954137;29;20244;-68
2021/12/09 02:58:45;;;;;;;8.73;5.37;;;3.90;99.90;;;;;;4954349;29;20196;-69
2021/12/09 03:01:16;;;;;;;8.53;6.40;;;3.90;99.90;;;;;;4953448;28;20468;-69
2021/12/09 03:03:53;;;;;;;6.50;5.90;;;3.90;99.90;;;;;;4954000;29;20717;-69
2021/12/09 03:06:27;;;;;;;10.67;6.37;;;3.90;99.90;;;;;;4936521;29;20493;-68
2021/12/09 03:08:54;;;;;;;6.17;5.53;;;3.90;99.90;;;;;;4953855;29;20427;-69
2021/12/09 03:11:21;;;;;;;9.10;5.10;;;3.90;99.90;;;;;;4953656;29;20456;-71
2021/12/09 03:13:49;;;;;;;10.83;5.10;;;4.00;99.90;;;;;;4941517;29;20444;-69
2021/12/09 03:16:15;;;;;;;6.27;4.93;;;3.90;99.90;;;;;;4953548;29;21009;-69
2021/12/09 03:18:46;;;;;;;7.93;5.03;;;3.80;99.90;;;;;;4953708;29;20445;-68
2021/12/09 03:21:25;;;;;;;9.83;6.00;;;3.80;99.90;;;;;;4953353;29;20511;-69
2021/12/09 03:23:51;;;;;;;7.20;4.77;;;3.80;99.90;;;;;;4953782;29;20432;-70
2021/12/09 03:26:20;;;;;;;8.60;5.50;;;3.80;99.90;;;;;;4936228;29;20437;-68
2021/12/09 03:28:46;;;;;;;10.07;5.57;;;3.70;99.90;;;;;;4953374;29;20425;-68
2021/12/09 03:31:12;;;;;;;8.90;5.43;;;3.80;99.90;;;;;;4953882;29;20447;-69
2021/12/09 03:33:37;;;;;;;15.53;5.60;;;3.70;99.90;;;;;;4953390;29;20595;-70
2021/12/09 03:36:05;;;;;;;11.03;5.53;;;3.70;99.90;;;;;;4953433;29;20882;-68
2021/12/09 03:38:32;;;;;;;13.87;6.20;;;3.70;99.90;;;;;;4953121;29;20255;-68
2021/12/09 03:40:58;;;;;;;11.23;6.10;;;3.70;99.90;;;;;;4954008;29;21030;-69
2021/12/09 03:43:24;;;;;;;8.43;5.90;;;3.70;99.90;;;;;;4953615;29;20431;-68
2021/12/09 03:45:53;;;;;;;12.27;6.47;;;3.80;99.90;;;;;;4953469;29;20189;-68
2021/12/09 03:48:18;;;;;;;8.60;6.00;;;3.80;99.90;;;;;;4953207;29;20259;-69
2021/12/09 03:50:45;;;;;;;6.30;5.33;;;3.70;99.90;;;;;;4952956;29;20456;-68
2021/12/09 03:53:14;;;;;;;11.77;7.23;;;3.80;99.90;;;;;;4952631;29;20175;-69
2021/12/09 03:55:40;;;;;;;11.50;5.57;;;3.80;99.90;;;;;;4952955;29;20436;-70
2021/12/09 03:58:07;;;;;;;9.90;6.67;;;3.80;99.90;;;;;;4953533;29;20444;-69
2021/12/09 04:00:32;;;;;;;9.53;6.10;;;3.80;99.90;;;;;;4953831;29;20472;-70
2021/12/09 04:02:58;;;;;;;10.77;6.23;;;3.80;99.90;;;;;;4953063;29;20459;-70
2021/12/09 04:05:24;;;;;;;6.73;5.90;;;3.80;99.90;;;;;;4952861;29;20181;-70
2021/12/09 04:07:50;;;;;;;15.37;6.27;;;3.80;99.90;;;;;;4953072;29;20204;-70
2021/12/09 04:10:15;;;;;;;8.57;5.10;;;3.80;99.90;;;;;;4953040;29;20722;-70
2021/12/09 04:12:41;;;;;;;9.73;6.23;;;3.70;99.90;;;;;;4953058;29;20583;-70
2021/12/09 04:15:08;;;;;;;11.10;5.93;;;3.70;99.90;;;;;;4952860;29;20177;-70
2021/12/09 04:17:33;;;;;;;7.37;5.60;;;3.70;99.90;;;;;;4952896;29;20184;-69
2021/12/09 04:19:59;;;;;;;6.57;5.93;;;3.70;99.90;;;;;;4952878;29;20459;-70
2021/12/09 04:22:25;;;;;;;8.90;6.67;;;3.70;99.90;;;;;;4953152;29;20181;-70
2021/12/09 04:24:52;;;;;;;11.10;6.30;;;3.70;99.90;;;;;;4953108;29;20221;-70
2021/12/09 04:27:18;;;;;;;8.47;5.40;;;3.70;99.90;;;;;;4952924;29;20255;-69
2021/12/09 04:29:44;;;;;;;7.80;6.57;;;3.70;99.90;;;;;;4952955;29;20480;-69
2021/12/09 04:32:10;;;;;;;7.20;5.13;;;3.70;99.90;;;;;;4952964;29;20460;-70
2021/12/09 04:34:35;;;;;;;7.63;4.73;;;3.70;99.90;;;;;;4952842;29;20208;-70
2021/12/09 04:37:01;;;;;;;10.13;6.00;;;3.70;99.90;;;;;;4952755;29;20181;-70
2021/12/09 04:39:27;;;;;;;10.00;5.10;;;3.70;99.90;;;;;;4952860;29;20181;-70
2021/12/09 04:41:54;;;;;;;9.50;6.20;;;3.70;99.90;;;;;;4953032;29;20212;-70
2021/12/09 04:44:20;;;;;;;8.87;4.93;;;3.70;99.90;;;;;;4952873;29;20523;-69
2021/12/09 04:46:46;;;;;;;15.27;5.70;;;3.70;99.90;;;;;;4952787;29;20460;-70
2021/12/09 04:49:11;;;;;;;9.23;5.47;;;3.60;99.90;;;;;;4952748;29;20428;-70
2021/12/09 04:51:37;;;;;;;13.40;5.40;;;3.70;99.90;;;;;;4952851;29;20652;-70
2021/12/09 04:54:04;;;;;;;7.33;5.13;;;3.70;99.90;;;;;;4953547;28;20185;-70
2021/12/09 04:56:30;;;;;;;5.93;4.87;;;3.70;99.90;;;;;;4955999;29;20195;-70
2021/12/09 04:58:55;;;;;;;11.13;4.50;;;3.80;99.90;;;;;;4956331;29;20527;-70
2021/12/09 05:01:22;;;;;;;9.93;5.03;;;3.90;99.90;;;;;;4956097;29;20268;-70
2021/12/09 05:03:48;;;;;;;10.20;4.97;;;4.00;99.90;;;;;;4944328;29;20175;-70
2021/12/09 05:06:16;;;;;;;8.13;4.87;;;4.00;99.90;;;;;;4955996;29;20432;-70
2021/12/09 05:08:46;;;;;;;9.87;6.70;;;4.00;99.90;;;;;;4956209;29;20432;-70
2021/12/09 05:11:48;;;;;;;14.77;8.03;;;3.90;99.90;;;;;;4955500;29;20527;-70
2021/12/09 05:13:59;;;;;;;13.83;4.83;;;3.90;99.90;;;;;;4955420;28;20926;-70
2021/12/09 05:16:24;;;;;;;5.13;3.87;;;3.80;99.90;;;;;;4955612;29;20428;-70
2021/12/09 05:18:57;;;;;;;6.10;3.70;;;3.80;99.90;;;;;;4955543;29;20429;-70
2021/12/09 05:21:23;;;;;;;9.23;5.60;;;3.80;99.90;;;;;;4955852;29;20195;-70
2021/12/09 05:23:48;;;;;;;15.23;9.83;;;3.90;99.90;;;;;;4955637;29;20432;-69
2021/12/09 05:26:15;;;;;;;8.50;4.87;;;3.80;99.90;;;;;;4955393;29;20428;-70
2021/12/09 05:28:41;;;;;;;12.83;5.53;;;3.80;99.90;;;;;;4955695;29;20169;-70
2021/12/09 05:33:51;;;;;;;6.60;3.87;;;3.90;99.90;;;;;;4955812;29;20243;-70
2021/12/09 05:36:17;;;;;;;6.37;4.30;;;3.90;99.90;;;;;;4954123;29;20447;-70
2021/12/09 05:38:42;;;;;;;8.20;5.27;;;3.80;99.90;;;;;;4955373;29;20523;-70
2021/12/09 05:41:09;;;;;;;9.67;6.57;;;3.90;99.90;;;;;;4955432;29;20973;-70
2021/12/09 05:43:35;;;;;;;9.80;4.80;;;3.90;99.90;;;;;;4955636;29;20263;-70
2021/12/09 05:46:01;;;;;;;5.83;3.47;;;3.90;99.90;;;;;;4953322;29;20443;-70
2021/12/09 05:48:27;;;;;;;8.63;3.63;;;3.90;99.90;;;;;;4953807;29;20468;-70
2021/12/09 05:50:53;;;;;;;11.63;4.60;;;3.80;99.90;;;;;;4955103;29;21114;-70
2021/12/09 05:53:18;;;;;;;5.10;3.27;;;3.80;99.90;;;;;;4955709;29;20185;-70
2021/12/09 05:55:44;;;;;;;10.80;4.07;;;3.90;99.90;;;;;;4954776;29;20197;-70
2021/12/09 05:58:13;;;;;;;6.90;3.67;;;3.90;99.90;;;;;;4955323;29;20203;-70
2021/12/09 06:00:39;;;;;;;7.50;3.17;;;3.90;99.90;;;;;;4954964;29;20882;-70
2021/12/09 06:03:05;;;;;;;5.10;3.40;;;3.90;99.90;;;;;;4954874;29;20439;-69
2021/12/09 06:05:31;;;;;;;11.53;3.77;;;3.90;99.90;;;;;;4954739;28;20268;-70
2021/12/09 06:07:57;;;;;;;7.03;4.20;;;3.90;99.90;;;;;;4955240;29;20562;-70
2021/12/09 06:10:23;;;;;;;9.40;7.17;;;3.90;99.90;;;;;;4954830;29;20223;-70
2021/12/09 06:12:48;;;;;;;11.13;4.87;;;3.90;99.90;;;;;;4955042;29;21121;-69
2021/12/09 06:15:14;;;;;;;11.30;4.60;;;3.90;99.90;;;;;;4954197;29;20188;-70
2021/12/09 06:17:39;;;;;;;4.17;3.20;;;3.90;99.90;;;;;;4954816;29;20235;-70
2021/12/09 06:20:05;;;;;;;11.17;3.80;;;3.90;99.90;;;;;;4954694;29;20260;-70
2021/12/09 06:22:31;;;;;;;6.70;3.87;;;3.90;99.90;;;;;;4954690;29;20188;-71
2021/12/09 06:24:56;;;;;;;7.53;4.03;;;3.80;99.90;;;;;;4954827;29;20553;-70
2021/12/09 06:27:22;;;;;;;6.27;4.10;;;3.70;99.90;;;;;;4950366;29;20255;-70
2021/12/09 06:29:47;;;;;;;4.57;3.97;;;3.80;99.90;;;;;;4954444;28;20185;-70
2021/12/09 06:32:13;;;;;;;7.63;3.97;;;3.70;99.90;;;;;;4960292;28;20192;-70
2021/12/09 06:34:39;;;;;;;6.93;4.37;;;3.70;99.90;;;;;;4954262;29;20188;-70
2021/12/09 06:37:04;;;;;;;8.63;3.77;;;3.70;99.90;;;;;;4954112;29;20329;-70
2021/12/09 06:39:30;;;;;;;9.80;4.10;;;3.70;99.90;;;;;;4954620;29;20185;-70
2021/12/09 06:41:55;;;;;;;5.67;4.20;;;3.70;99.90;;;;;;4954472;29;20283;-69
2021/12/09 06:44:21;;;;;;;6.87;4.00;;;3.70;99.90;;;;;;4954790;29;20196;-70
2021/12/09 06:46:47;;;;;;;4.83;4.00;;;3.60;99.90;;;;;;4947892;29;20227;-71
2021/12/09 06:49:13;;;;;;;4.50;3.60;;;3.60;99.90;;;;;;4954569;29;20189;-70
2021/12/09 06:51:38;;;;;;;4.53;3.47;;;3.60;99.90;;;;;;4954064;29;20217;-70
2021/12/09 06:54:04;;;;;;;6.70;3.57;;;3.60;99.90;;;;;;4928402;29;20190;-70
2021/12/09 06:56:32;;;;;;;12.70;4.63;;;3.70;99.90;;;;;;4948190;29;20185;-69
2021/12/09 06:58:59;;;;;;;5.17;3.97;;;3.70;99.90;;;;;;4953716;29;20181;-70
2021/12/09 07:01:25;;;;;;;7.27;5.40;;;3.70;99.90;;;;;;4951971;28;20522;-70
2021/12/09 07:03:51;;;;;;;7.90;3.73;;;3.80;99.90;;;;;;4959728;28;20888;-70
2021/12/09 07:06:17;;;;;;;7.07;4.97;;;3.80;99.90;;;;;;4963411;28;20809;-71
2021/12/09 07:08:48;;;;;;;5.20;3.93;;;3.90;99.90;;;;;;4953729;29;20205;-71
2021/12/09 07:11:16;;;;;;;5.23;4.03;;;3.90;99.90;;;;;;4954186;29;20452;-69
2021/12/09 07:13:42;;;;;;;7.37;4.30;;;4.00;99.90;;;;;;4954506;29;20470;-70
2021/12/09 07:16:08;;;;;;;8.80;4.13;;;3.90;99.90;;;;;;4952752;28;20950;-70
2021/12/09 07:18:35;;;;;;;6.50;4.57;;;3.80;99.90;;;;;;4956218;28;20476;-71
2021/12/09 07:21:01;;;;;;;10.20;5.63;;;3.90;99.90;;;;;;4953619;29;20471;-72
2021/12/09 07:23:26;;;;;;;7.07;5.33;;;3.80;99.90;;;;;;4953273;29;20799;-71
2021/12/09 07:25:52;;;;;;;9.23;6.13;;;3.80;99.90;;;;;;4953192;29;20680;-70
2021/12/09 07:28:18;;;;;;;5.43;4.30;;;3.80;99.90;;;;;;4950717;29;20236;-69
2021/12/09 07:30:44;;;;;;;5.63;4.20;;;3.80;99.90;;;;;;4950500;29;20670;-70
2021/12/09 07:33:09;;;;;;;8.90;4.27;;;3.90;99.90;;;;;;4952569;29;20284;-69
2021/12/09 07:35:35;;;;;;;6.30;4.40;;;3.90;99.90;;;;;;4953119;29;20515;-69
2021/12/09 07:38:03;;;;;;;3.90;3.57;;;3.90;99.90;;;;;;4953207;29;20180;-69
2021/12/09 07:40:29;;;;;;;13.37;5.63;;;3.90;99.90;;;;;;4952966;29;20460;-70
2021/12/09 07:42:55;;;;;;;9.50;5.37;;;3.90;99.90;;;;;;4953204;29;20526;-69
2021/12/09 07:45:21;;;;;;;18.47;9.00;;;4.00;99.90;;;;;;4952572;29;20895;-70
2021/12/09 07:47:48;;;;;;;7.83;5.20;;;4.00;99.90;;;;;;4950214;28;20196;-70
2021/12/09 07:50:21;;;;;;;6.73;5.20;;;3.90;99.90;;;;;;4921369;29;20547;-69
2021/12/09 07:52:48;;;;;;;8.47;5.90;;;3.90;99.90;;;;;;4938980;29;20531;-70
2021/12/09 07:55:15;;;;;;;7.93;5.53;;;4.00;99.90;;;;;;4952799;29;20459;-68
2021/12/09 07:57:42;;;;;;;7.77;6.20;;;3.90;99.90;;;;;;4933502;29;20440;-70
2021/12/09 08:00:15;;;;;;;7.30;5.00;;;3.90;99.90;;;;;;4953213;29;20436;-69
2021/12/09 08:02:42;;;;;;;10.90;6.40;;;3.90;99.90;;;;;;4952900;29;20448;-69
2021/12/09 08:05:09;;;;;;;6.93;6.27;;;3.90;99.90;;;;;;4952771;29;20510;-69
2021/12/09 08:07:35;;;;;;;9.10;5.53;;;4.00;99.90;;;;;;4952567;29;20468;-70
2021/12/09 08:10:00;;;;;;;6.63;4.90;;;4.00;99.90;;;;;;4940685;29;20467;-70
2021/12/09 08:12:26;;;;;;;8.37;5.47;;;4.00;99.90;;;;;;4953162;29;20173;-70
2021/12/09 08:14:52;;;;;;;5.30;4.80;;;4.00;99.90;;;;;;4952226;29;20185;-70
2021/12/09 08:20:05;;;;;;;6.43;5.30;;;3.90;99.90;;;;;;4939955;29;20181;-70
2021/12/09 08:22:32;;;;;;;5.13;4.60;;;3.90;99.90;;;;;;4952762;29;20451;-70
2021/12/09 08:24:59;;;;;;;8.33;5.53;;;4.00;99.90;;;;;;4950438;29;20811;-70
2021/12/09 08:27:25;;;;;;;6.97;5.53;;;4.00;99.90;;;;;;4944438;29;21033;-70
2021/12/09 08:29:51;;;;;;;6.10;5.00;;;4.10;99.90;;;;;;4947681;29;20471;-70
2021/12/09 08:32:17;;;;;;;7.53;4.97;;;4.20;99.90;;;;;;4953841;29;20530;-70
2021/12/09 08:34:43;;;;;;;6.73;4.53;;;4.10;99.90;;;;;;4953304;29;20196;-70
2021/12/09 08:37:08;;;;;;;9.20;5.63;;;4.10;99.90;;;;;;4953272;29;20193;-69
2021/12/09 08:39:34;;;;;;;7.23;4.90;;;4.20;99.90;;;;;;4952741;29;20191;-70
2021/12/09 08:41:59;;;;;;;7.67;5.40;;;4.20;99.90;;;;;;4953060;29;21012;-70
2021/12/09 08:44:25;;;;;;;5.70;4.63;;;4.30;99.90;;;;;;4953060;29;20192;-70
2021/12/09 08:46:51;;;;;;;7.90;4.53;;;4.30;99.90;;;;;;4952792;29;20272;-71
2021/12/09 08:49:16;;;;;;;11.53;5.33;;;4.30;99.90;;;;;;4952842;29;20185;-70
2021/12/09 08:51:42;;;;;;;9.23;5.53;;;4.20;99.90;;;;;;4953091;29;20205;-69
2021/12/09 08:54:08;;;;;;;13.63;8.23;;;4.20;99.90;;;;;;4952913;29;20188;-70
2021/12/09 08:56:36;;;;;;;6.83;5.93;;;4.30;99.90;;;;;;4952651;29;20177;-70
2021/12/09 08:59:04;;;;;;;6.70;5.43;;;4.30;99.90;;;;;;4952206;29;20224;-69
2021/12/09 09:01:30;;;;;;;10.10;5.30;;;4.50;99.90;;;;;;4952674;29;20480;-70
2021/12/09 09:03:55;;;;;;;6.10;5.47;;;4.60;99.90;;;;;;4952890;29;20436;-70
2021/12/09 09:06:21;;;;;;;9.87;6.93;;;4.60;99.90;;;;;;4947598;29;20666;-70
2021/12/09 09:08:50;;;;;;;6.60;5.60;;;4.70;99.90;;;;;;4945406;29;20208;-70
2021/12/09 09:11:16;;;;;;;6.60;5.20;;;4.80;99.90;;;;;;4952726;29;20311;-70
2021/12/09 09:13:42;;;;;;;5.17;4.67;;;5.00;99.90;;;;;;4952704;29;21306;-69
2021/12/09 09:16:08;;;;;;;7.33;5.70;;;4.90;99.90;;;;;;4952361;29;20184;-69
2021/12/09 09:18:33;;;;;;;8.63;6.53;;;5.00;99.90;;;;;;4952379;29;20185;-70
2021/12/09 09:20:59;;;;;;;6.07;5.47;;;5.00;99.90;;;;;;4952273;29;20612;-70
2021/12/09 09:23:25;;;;;;;6.00;5.33;;;5.10;99.90;;;;;;4952597;29;20196;-69
2021/12/09 09:25:51;;;;;;;9.20;5.13;;;5.20;99.90;;;;;;4951314;29;20543;-70
2021/12/09 09:28:18;;;;;;;7.60;5.50;;;5.20;99.90;;;;;;4951959;29;20224;-70
2021/12/09 09:30:52;;;;;;;9.00;4.97;;;5.20;99.90;;;;;;4951778;29;20462;-69
2021/12/09 09:33:19;;;;;;;7.50;6.40;;;5.40;99.90;;;;;;4948092;29;20531;-70
2021/12/09 09:35:45;;;;;;;8.17;6.23;;;5.40;99.90;;;;;;4951994;29;20476;-69
2021/12/09 09:38:11;;;;;;;6.07;5.53;;;5.50;99.90;;;;;;4949825;29;20451;-69
2021/12/09 09:41:07;;;;;;;7.00;5.70;;;5.60;99.90;;;;;;4934031;29;20463;-69
2021/12/09 09:46:17;;;;;;;6.40;5.40;;;5.60;99.90;;;;;;4949406;29;20555;-70
2021/12/09 09:48:48;;;;;;;6.53;5.47;;;5.60;99.90;;;;;;4951445;29;20472;-70
2021/12/09 09:51:14;;;;;;;7.90;4.97;;;5.60;99.90;;;;;;4951392;29;20464;-69
2021/12/09 09:53:41;;;;;;;14.47;10.40;;;5.70;99.90;;;;;;4951606;29;20527;-70
2021/12/09 09:56:13;;;;;;;7.00;5.40;;;5.90;99.90;;;;;;4949653;29;20472;-70
2021/12/09 09:58:47;;;;;;;7.63;5.40;;;6.10;99.90;;;;;;4951778;29;20440;-70
2021/12/09 10:01:12;;;;;;;6.17;5.57;;;6.00;99.90;;;;;;4948445;29;20472;-70
2021/12/09 10:03:42;;;;;;;10.30;5.70;;;6.00;99.90;;;;;;4951413;29;20463;-70
2021/12/09 10:06:09;;;;;;;7.67;5.30;;;5.90;99.90;;;;;;4951443;29;20555;-70
2021/12/09 10:08:35;;;;;;;5.80;4.90;;;5.80;99.90;;;;;;4952497;29;20965;-70
2021/12/09 10:11:02;;;;;;;7.80;5.27;;;5.70;99.90;;;;;;4951487;29;20468;-71
2021/12/09 10:13:31;;;;;;;7.90;4.90;;;5.50;99.90;;;;;;4950793;29;20487;-70
2021/12/09 10:15:57;;;;;;;8.30;6.17;;;5.40;99.90;;;;;;4951608;29;20543;-71
2021/12/09 10:18:42;;;;;;;7.47;6.70;;;5.50;99.90;;;;;;4950914;29;20452;-72
2021/12/09 10:21:09;;;;;;;8.00;4.93;;;5.60;99.90;;;;;;4939211;29;20560;-71
2021/12/09 10:23:42;;;;;;;6.20;5.47;;;5.70;99.90;;;;;;4949483;29;20876;-71
2021/12/09 10:26:29;;;;;;;5.67;5.00;;;5.70;99.90;;;;;;4950567;29;20440;-71
2021/12/09 10:29:06;;;;;;;6.27;4.47;;;5.60;99.90;;;;;;4947501;29;20441;-70
2021/12/09 10:31:42;;;;;;;5.53;4.87;;;5.60;99.90;;;;;;4951575;29;20535;-71
2021/12/09 10:34:20;;;;;;;5.60;4.60;;;5.70;99.90;;;;;;4948409;29;20468;-71
2021/12/09 10:36:56;;;;;;;4.60;4.20;;;5.70;99.90;;;;;;4944770;29;20480;-70
2021/12/09 10:39:32;;;;;;;6.90;4.73;;;5.60;99.90;;;;;;4951453;28;20442;-71
2021/12/09 10:42:00;;;;;;;10.03;7.67;;;5.60;99.90;;;;;;4937797;29;20478;-71
2021/12/09 10:44:33;;;;;;;6.13;4.47;;;5.50;99.90;;;;;;4942911;29;20862;-71
2021/12/09 10:47:37;;;;;;;4.30;3.90;;;5.40;99.90;;;;;;4948079;29;20491;-71
2021/12/09 10:50:10;;;;;;;4.90;4.33;;;5.40;99.90;;;;;;4947163;29;20965;-71
2021/12/09 10:52:44;;;;;;;7.57;4.70;;;5.50;99.90;;;;;;4950815;28;20432;-71
2021/12/09 10:55:18;;;;;;;7.27;5.20;;;5.40;99.90;;;;;;4950947;29;20436;-71
2021/12/09 10:57:51;;;;;;;4.93;4.07;;;5.50;99.90;;;;;;4951361;29;20527;-71
2021/12/09 11:00:24;;;;;;;5.63;4.30;;;5.50;99.90;;;;;;4951021;29;20472;-71
2021/12/09 11:03:10;;;;;;;4.60;4.20;;;5.50;99.90;;;;;;4951322;29;20820;-70
2021/12/09 11:05:40;;;;;;;4.50;4.10;;;5.50;99.90;;;;;;4950996;29;20532;-71
2021/12/09 11:08:24;;;;;;;9.57;4.77;;;5.60;99.90;;;;;;4951214;29;20460;-70
2021/12/09 11:11:09;;;;;;;7.30;4.20;;;5.80;99.90;;;;;;4950748;29;20456;-71
2021/12/09 11:13:44;;;;;;;7.00;3.70;;;5.90;99.90;;;;;;4932325;29;20429;-70
2021/12/09 11:16:11;;;;;;;4.93;3.50;;;6.00;99.90;;;;;;4931713;29;20803;-71
2021/12/09 11:18:44;;;;;;;3.03;2.77;;;6.00;99.90;;;;;;4914651;29;20451;-72
2021/12/09 11:21:31;;;;;;;5.53;3.70;;;6.10;99.90;;;;;;4941073;29;20452;-71
2021/12/09 11:24:01;;;;;;;5.87;3.77;;;6.20;99.90;;;;;;4951156;29;20454;-69
2021/12/09 11:29:07;;;;;;;7.37;3.20;;;6.00;99.90;;;;;;4950550;29;20438;-70
2021/12/09 11:31:46;;;;;;;5.10;3.77;;;6.00;99.90;;;;;;4951079;29;20531;-69
2021/12/09 11:34:17;;;;;;;4.20;3.30;;;6.10;99.90;;;;;;4914327;29;20528;-72
2021/12/09 11:36:54;;;;;;;3.90;3.20;;;6.00;99.90;;;;;;4931479;29;20433;-72
2021/12/09 11:39:28;;;;;;;12.87;4.97;;;6.10;99.90;;;;;;4935688;29;20922;-72
2021/12/09 11:42:04;;;;;;;4.17;3.57;;;6.20;99.90;;;;;;4950835;29;20448;-72
2021/12/09 11:44:30;;;;;;;5.03;4.43;;;6.40;99.90;;;;;;4950617;29;20831;-72
2021/12/09 11:46:56;;;;;;;4.80;3.40;;;6.40;99.90;;;;;;4950293;29;20831;-73
2021/12/09 11:49:21;;;;;;;4.43;3.77;;;6.60;99.90;;;;;;4950724;29;20435;-73
2021/12/09 11:51:47;;;;;;;8.57;4.60;;;7.00;99.90;;;;;;4950565;29;20432;-71
2021/12/09 11:54:12;;;;;;;3.97;3.40;;;7.60;99.90;;;;;;4950108;29;20172;-71
2021/12/09 11:56:55;;;;;;;4.63;3.33;;;8.80;99.90;;;;;;4950252;29;20200;-71
2021/12/09 12:06:42;;;;;;;3.60;3.00;;;11.10;99.90;;;;;;4950835;29;20260;-71
2021/12/09 12:11:27;;;;;;;3.63;2.50;;;9.50;99.90;;;;;;4953877;29;20452;-70
2021/12/09 12:16:35;;;;;;;4.03;2.93;;;11.90;99.90;;;;;;4954179;29;20487;-68
2021/12/09 12:19:10;;;;;;;3.00;2.60;;;11.70;99.90;;;;;;4954257;29;20427;-70
2021/12/09 12:27:10;;;;;;;4.03;2.73;;;13.90;99.90;;;;;;4953598;29;20456;-70
2021/12/09 12:30:10;;;;;;;5.87;3.23;;;14.00;99.90;;;;;;4936659;29;20435;-70
2021/12/09 12:41:11;;;;;;;6.53;3.53;;;10.70;99.90;;;;;;4950699;29;20468;-69
2021/12/09 12:43:45;;;;;;;3.43;2.57;;;10.90;99.90;;;;;;4953957;29;20429;-70
2021/12/09 12:49:48;;;;;;;4.10;2.50;;;12.60;99.90;;;;;;4952007;29;20443;-69
2021/12/09 12:52:13;;;;;;;7.40;3.23;;;12.40;99.90;;;;;;4945796;29;20878;-69
2021/12/09 12:54:49;;;;;;;2.60;2.40;;;12.60;99.90;;;;;;4951228;29;20424;-68
2021/12/09 12:57:36;;;;;;;4.30;2.50;;;13.70;99.90;;;;;;4951380;29;20440;-70
2021/12/09 13:00:19;;;;;;;8.63;3.37;;;13.50;99.90;;;;;;4949021;29;20428;-69
2021/12/09 13:03:09;;;;;;;5.27;2.20;;;12.80;99.90;;;;;;4939763;29;20445;-69
2021/12/09 13:06:10;;;;;;;7.77;2.83;;;12.20;99.90;;;;;;4950760;29;20432;-69
2021/12/09 13:11:47;;;;;;;6.63;2.30;;;10.70;99.90;;;;;;4949370;29;21068;-72
2021/12/09 13:14:22;;;;;;;9.03;3.13;;;9.40;99.90;;;;;;4948704;28;20533;-69
2021/12/09 13:17:02;;;;;;;5.30;2.77;;;9.10;99.90;;;;;;4951904;29;20439;-69
2021/12/09 13:19:34;;;;;;;5.20;2.57;;;8.60;99.90;;;;;;4934972;29;20520;-68
2021/12/09 13:22:17;;;;;;;4.53;2.00;;;8.50;99.90;;;;;;4951910;29;20858;-68
2021/12/09 13:25:04;;;;;;;4.37;2.20;;;10.40;99.90;;;;;;4952254;29;20535;-69
2021/12/09 13:27:40;;;;;;;7.37;2.57;;;11.40;99.90;;;;;;4942512;29;20503;-69
2021/12/09 13:30:34;;;;;;;5.07;2.70;;;11.00;99.90;;;;;;4948651;29;20436;-68
2021/12/09 13:33:27;;;;;;;5.37;2.30;;;9.60;99.90;;;;;;4922199;29;20439;-70
2021/12/09 13:47:12;;;;;;;5.80;2.37;;;7.20;99.90;;;;;;4951321;29;20572;-68
2021/12/09 13:55:24;;;;;;;9.90;2.40;;;6.60;99.90;;;;;;4951392;29;20531;-69
2021/12/09 13:58:03;;;;;;;9.90;2.03;;;6.50;99.90;;;;;;4951046;29;20441;-69
2021/12/09 14:00:47;;;;;;;3.80;2.20;;;6.50;99.90;;;;;;4941904;29;21058;-69
2021/12/09 14:03:18;;;;;;;7.83;2.63;;;6.40;99.90;;;;;;4947174;29;20436;-68
2021/12/09 14:05:55;;;;;;;7.23;2.60;;;6.30;99.90;;;;;;4950971;29;20432;-69